Time;durP1;ratioP1;P1;durP2;ratioP2;P2;SDS_P1;SDS_P2;PMS_P1;PMS_P2;Temp;Humidity;BMP_temperature;BMP_pressure;BME280_temperature;BME280_humidity;BME280_pressure;Samples;Min_cycle;Max_cycle;Signal;HPM_P1;HPM_P2
2019/05/31 00:02:23;;;;;;;5.1;3.3;;;;;;;16.37;69.4502;1011.72;;;;
2019/05/31 00:04:48;;;;;;;4.9;3.1;;;;;;;16.32;69.72266;1011.702;;;;
2019/05/31 00:07:14;;;;;;;4.4;3.3;;;;;;;16.37;69.76367;1011.697;;;;
2019/05/31 00:09:39;;;;;;;3.5;2.9;;;;;;;16.37;69.83301;1011.68;;;;
2019/05/31 00:12:05;;;;;;;4.2;3.2;;;;;;;16.4;69.69922;1011.702;;;;
2019/05/31 00:14:30;;;;;;;3.5;3.2;;;;;;;16.43;69.71582;1011.681;;;;
2019/05/31 00:16:55;;;;;;;4;3.2;;;;;;;16.52;69.45215;1011.685;;;;
2019/05/31 00:19:20;;;;;;;5.6;3.3;;;;;;;16.61;68.98926;1011.677;;;;
2019/05/31 00:21:45;;;;;;;5.8;3.1;;;;;;;16.67;69.01074;1011.696;;;;
2019/05/31 00:24:11;;;;;;;4.7;2.9;;;;;;;16.73;68.82227;1011.686;;;;
2019/05/31 00:26:36;;;;;;;4.4;3;;;;;;;16.78;68.53027;1011.701;;;;
2019/05/31 00:29:21;;;;;;;4.7;3.1;;;;;;;16.83;68.33984;1011.724;;;;
2019/05/31 00:31:54;;;;;;;4.6;3.2;;;;;;;16.77;68.5625;1011.724;;;;
2019/05/31 00:34:19;;;;;;;4.5;2.9;;;;;;;16.82;68.30371;1011.649;;;;
2019/05/31 00:37:00;;;;;;;3.2;2.7;;;;;;;16.79;68.55469;1011.644;;;;
2019/05/31 00:39:25;;;;;;;4.2;3;;;;;;;16.88;68.46289;1011.674;;;;
2019/05/31 00:41:51;;;;;;;5.9;2.9;;;;;;;16.96;66.33789;1011.65;;;;
2019/05/31 00:44:18;;;;;;;4.6;2.9;;;;;;;17.12;65.9209;1011.597;;;;
2019/05/31 00:47:04;;;;;;;3.9;2.5;;;;;;;17.21;64.51563;1011.584;;;;
2019/05/31 00:49:39;;;;;;;4.8;2.9;;;;;;;17.3;66.31934;1011.581;;;;
2019/05/31 00:52:05;;;;;;;5.4;2.7;;;;;;;17.35;66.43262;1011.613;;;;
2019/05/31 00:54:41;;;;;;;3.8;2.9;;;;;;;17.3;66.01758;1011.622;;;;
2019/05/31 00:57:06;;;;;;;5.9;2.7;;;;;;;17.34;64.31445;1011.615;;;;
2019/05/31 00:59:31;;;;;;;5.7;2.9;;;;;;;17.37;63.93457;1011.602;;;;
2019/05/31 01:01:56;;;;;;;4.8;3.3;;;;;;;17.37;64.06152;1011.592;;;;
2019/05/31 01:04:21;;;;;;;4.6;3.2;;;;;;;17.37;65.27246;1011.586;;;;
2019/05/31 01:06:47;;;;;;;6;2.9;;;;;;;17.38;64.84375;1011.617;;;;
2019/05/31 01:09:12;;;;;;;5.1;3.1;;;;;;;17.41;64.75293;1011.568;;;;
2019/05/31 01:11:37;;;;;;;5.9;3.2;;;;;;;17.35;64.90918;1011.582;;;;
2019/05/31 01:14:03;;;;;;;4.5;3.1;;;;;;;17.27;65.03711;1011.568;;;;
2019/05/31 01:16:28;;;;;;;4.4;3.2;;;;;;;17.24;65.14941;1011.569;;;;
2019/05/31 01:18:53;;;;;;;3.9;2.9;;;;;;;17.25;65.27637;1011.604;;;;
2019/05/31 01:21:18;;;;;;;5.7;3.3;;;;;;;17.37;64.95703;1011.556;;;;
2019/05/31 01:23:45;;;;;;;3.7;3;;;;;;;17.28;65.02637;1011.564;;;;
2019/05/31 01:26:10;;;;;;;5;3;;;;;;;17.1;65.66211;1011.59;;;;
2019/05/31 01:28:35;;;;;;;4.6;3;;;;;;;17.09;65.66113;1011.601;;;;
2019/05/31 01:31:00;;;;;;;5.9;3.1;;;;;;;17.05;65.63086;1011.626;;;;
2019/05/31 01:33:25;;;;;;;4.4;3;;;;;;;17.13;65.42383;1011.561;;;;
2019/05/31 01:35:50;;;;;;;5.4;2.9;;;;;;;17.07;65.67969;1011.511;;;;
2019/05/31 01:38:16;;;;;;;3.7;2.9;;;;;;;17.09;65.59082;1011.508;;;;
2019/05/31 01:40:41;;;;;;;6.2;3.1;;;;;;;16.91;66.13184;1011.593;;;;
2019/05/31 01:43:20;;;;;;;3.9;2.6;;;;;;;16.96;65.52539;1011.562;;;;
2019/05/31 01:45:57;;;;;;;5.6;2.9;;;;;;;17.04;65.37402;1011.514;;;;
2019/05/31 01:48:22;;;;;;;3.5;2.9;;;;;;;17.02;65.40625;1011.472;;;;
2019/05/31 01:51:00;;;;;;;3.2;2.5;;;;;;;17.06;65.36621;1011.491;;;;
2019/05/31 01:53:25;;;;;;;4;2.5;;;;;;;17.08;65.35742;1011.459;;;;
2019/05/31 01:55:53;;;;;;;4.1;2.9;;;;;;;17.19;64.91992;1011.438;;;;
2019/05/31 01:58:20;;;;;;;4.4;3;;;;;;;17.1;65.14941;1011.457;;;;
2019/05/31 02:00:45;;;;;;;4.8;3;;;;;;;16.99;65.69238;1011.474;;;;
2019/05/31 02:03:11;;;;;;;4.5;2.8;;;;;;;17.11;65.09375;1011.437;;;;
2019/05/31 02:05:36;;;;;;;5.8;2.8;;;;;;;17.11;65.21191;1011.43;;;;
2019/05/31 02:08:09;;;;;;;3.1;2.6;;;;;;;17.05;65.375;1011.432;;;;
2019/05/31 02:10:35;;;;;;;5.8;2.5;;;;;;;17.15;64.54297;1011.423;;;;
2019/05/31 02:13:00;;;;;;;3.5;2.7;;;;;;;17.16;64.7998;1011.435;;;;
2019/05/31 02:15:36;;;;;;;4.1;2.6;;;;;;;17.23;64.65918;1011.431;;;;
2019/05/31 02:18:09;;;;;;;4.7;2.8;;;;;;;17.15;64.72754;1011.431;;;;
2019/05/31 02:20:39;;;;;;;4.5;2.6;;;;;;;17.15;64.54199;1011.441;;;;
2019/05/31 02:23:24;;;;;;;4.4;2.6;;;;;;;17.1;64.99805;1011.44;;;;
2019/05/31 02:25:56;;;;;;;5;2.7;;;;;;;17.06;65.21484;1011.453;;;;
2019/05/31 02:28:20;;;;;;;3.5;2.6;;;;;;;17.04;65.42188;1011.486;;;;
2019/05/31 02:30:46;;;;;;;6.2;2.7;;;;;;;17.03;65.40625;1011.424;;;;
2019/05/31 02:33:11;;;;;;;3.3;2.5;;;;;;;17.08;65.35742;1011.451;;;;
2019/05/31 02:35:36;;;;;;;4;2.6;;;;;;;17.11;65.07227;1011.474;;;;
2019/05/31 02:38:01;;;;;;;4.1;2.7;;;;;;;17.22;64.5752;1011.507;;;;
2019/05/31 02:40:26;;;;;;;3.8;2.8;;;;;;;17.2;65.71191;1011.514;;;;
2019/05/31 02:42:51;;;;;;;4.2;2.8;;;;;;;17.32;65.71875;1011.505;;;;
2019/05/31 02:45:16;;;;;;;3.1;2.4;;;;;;;17.27;66.01367;1011.51;;;;
2019/05/31 02:47:41;;;;;;;3.2;2.9;;;;;;;17.27;66.81445;1011.505;;;;
2019/05/31 02:50:27;;;;;;;4.5;2.9;;;;;;;17.24;66.13672;1011.516;;;;
2019/05/31 02:53:13;;;;;;;3;2.5;;;;;;;17.33;65.17285;1011.495;;;;
2019/05/31 02:55:38;;;;;;;5.4;2.8;;;;;;;17.34;64.46484;1011.497;;;;
2019/05/31 02:58:06;;;;;;;3.6;2.7;;;;;;;17.42;64.05762;1011.517;;;;
2019/05/31 03:00:39;;;;;;;5.2;2.8;;;;;;;17.37;64.10938;1011.523;;;;
2019/05/31 03:03:04;;;;;;;5;2.7;;;;;;;17.44;63.99023;1011.535;;;;
2019/05/31 03:05:29;;;;;;;4.2;2.7;;;;;;;17.4;63.625;1011.537;;;;
2019/05/31 03:07:54;;;;;;;4.2;2.8;;;;;;;17.46;63.93652;1011.506;;;;
2019/05/31 03:10:23;;;;;;;3.4;2.7;;;;;;;17.36;64.3291;1011.555;;;;
2019/05/31 03:12:53;;;;;;;4.7;2.4;;;;;;;17.38;64.16895;1011.566;;;;
2019/05/31 03:15:27;;;;;;;2.8;2.5;;;;;;;17.3;64.51758;1011.604;;;;
2019/05/31 03:17:52;;;;;;;3.9;2.5;;;;;;;17.27;64.88574;1011.594;;;;
2019/05/31 03:20:17;;;;;;;4;2.6;;;;;;;17.44;64.45605;1011.636;;;;
2019/05/31 03:22:42;;;;;;;5.2;2.8;;;;;;;17.23;64.92578;1011.61;;;;
2019/05/31 03:25:07;;;;;;;3.6;2.6;;;;;;;17.24;65.03125;1011.646;;;;
2019/05/31 03:27:45;;;;;;;5.8;2.7;;;;;;;17.33;64.81348;1011.636;;;;
2019/05/31 03:30:10;;;;;;;4.5;2.8;;;;;;;17.19;65.09473;1011.624;;;;
2019/05/31 03:32:36;;;;;;;3.7;2.7;;;;;;;17.27;64.87402;1011.634;;;;
2019/05/31 03:35:02;;;;;;;3.3;2.5;;;;;;;17.32;64.74219;1011.645;;;;
2019/05/31 03:37:27;;;;;;;4.1;2.8;;;;;;;17.33;65.03418;1011.641;;;;
2019/05/31 03:39:52;;;;;;;3.5;2.6;;;;;;;17.27;65.00195;1011.64;;;;
2019/05/31 03:42:17;;;;;;;4.7;2.9;;;;;;;17.14;65.51758;1011.686;;;;
2019/05/31 03:44:43;;;;;;;5.2;2.8;;;;;;;17.31;65.2627;1011.672;;;;
2019/05/31 03:47:08;;;;;;;6;2.6;;;;;;;17.41;64.95215;1011.694;;;;
2019/05/31 03:49:40;;;;;;;4.5;2.7;;;;;;;17.28;65.25879;1011.704;;;;
2019/05/31 03:52:14;;;;;;;3.7;2.5;;;;;;;17.26;65.9873;1011.71;;;;
2019/05/31 03:54:46;;;;;;;3.7;2.7;;;;;;;17.22;66.13281;1011.752;;;;
2019/05/31 03:57:11;;;;;;;4.3;2.7;;;;;;;17.44;65.35254;1011.793;;;;
2019/05/31 03:59:37;;;;;;;5.1;3.2;;;;;;;17.33;65.58008;1011.769;;;;
2019/05/31 04:02:28;;;;;;;4.9;2.8;;;;;;;17.35;65.60645;1011.794;;;;
2019/05/31 04:04:53;;;;;;;14.6;11.6;;;;;;;17.22;66.06348;1011.868;;;;
2019/05/31 04:07:18;;;;;;;5;2.7;;;;;;;17.39;65.78516;1011.827;;;;
2019/05/31 04:09:43;;;;;;;3.5;3.1;;;;;;;17.4;65.49707;1011.833;;;;
2019/05/31 04:12:08;;;;;;;4.1;2.9;;;;;;;17.41;65.47559;1011.851;;;;
2019/05/31 04:14:34;;;;;;;4;3;;;;;;;17.56;64.88184;1011.898;;;;
2019/05/31 04:16:58;;;;;;;4.1;2.8;;;;;;;17.53;64.93555;1011.872;;;;
2019/05/31 04:19:23;;;;;;;4.2;2.9;;;;;;;17.5;64.87402;1011.857;;;;
2019/05/31 04:21:49;;;;;;;3.2;2.8;;;;;;;17.46;64.63477;1011.845;;;;
2019/05/31 04:24:22;;;;;;;4;2.9;;;;;;;17.44;64.71289;1011.83;;;;
2019/05/31 04:26:47;;;;;;;5.4;2.6;;;;;;;17.53;64.67969;1011.874;;;;
2019/05/31 04:29:12;;;;;;;4.6;2.7;;;;;;;17.41;64.96387;1011.858;;;;
2019/05/31 04:31:37;;;;;;;6.3;2.8;;;;;;;17.44;64.80664;1011.876;;;;
2019/05/31 04:34:02;;;;;;;5.9;2.7;;;;;;;17.51;64.41992;1011.92;;;;
2019/05/31 04:36:27;;;;;;;4.1;2.9;;;;;;;17.46;64.63281;1011.919;;;;
2019/05/31 04:38:52;;;;;;;4.5;2.8;;;;;;;17.43;64.95605;1011.968;;;;
2019/05/31 04:41:18;;;;;;;3.7;2.7;;;;;;;17.47;64.82227;1011.984;;;;
2019/05/31 04:43:43;;;;;;;3;2.7;;;;;;;17.55;64.77539;1012.021;;;;
2019/05/31 04:46:13;;;;;;;5.2;2.8;;;;;;;17.53;65.19141;1012.024;;;;
2019/05/31 04:48:41;;;;;;;5.4;3;;;;;;;17.57;64.77832;1012.039;;;;
2019/05/31 04:51:06;;;;;;;3.5;2.9;;;;;;;17.59;64.7334;1012.058;;;;
2019/05/31 04:53:31;;;;;;;5.5;2.7;;;;;;;17.78;63.98242;1012.08;;;;
2019/05/31 04:55:59;;;;;;;6.7;2.8;;;;;;;17.75;63.96582;1012.05;;;;
2019/05/31 04:58:31;;;;;;;5.5;2.8;;;;;;;17.7;64.4248;1012.101;;;;
2019/05/31 05:01:03;;;;;;;4.1;2.6;;;;;;;17.89;63.9873;1012.037;;;;
2019/05/31 05:03:36;;;;;;;8.6;2.8;;;;;;;17.85;63.81934;1012.061;;;;
2019/05/31 05:06:02;;;;;;;4.3;2.7;;;;;;;18;63.00098;1012.061;;;;
2019/05/31 05:08:27;;;;;;;4;2.6;;;;;;;17.9;63.11621;1012.08;;;;
2019/05/31 05:10:54;;;;;;;4.2;2.5;;;;;;;17.96;63.21777;1012.072;;;;
2019/05/31 05:13:19;;;;;;;5.2;2.8;;;;;;;18;63.06055;1012.061;;;;
2019/05/31 05:15:44;;;;;;;4.8;2.7;;;;;;;18.12;62.71582;1012.051;;;;
2019/05/31 05:18:09;;;;;;;6.4;2.6;;;;;;;18.17;62.96777;1012.082;;;;
2019/05/31 05:20:35;;;;;;;4.4;2.8;;;;;;;18.05;63.07813;1012.032;;;;
2019/05/31 05:22:59;;;;;;;4.2;2.6;;;;;;;18.12;62.80859;1012.001;;;;
2019/05/31 05:25:25;;;;;;;4.6;2.5;;;;;;;18.14;62.83594;1011.971;;;;
2019/05/31 05:28:02;;;;;;;4.5;2.6;;;;;;;18.19;62.82031;1011.967;;;;
2019/05/31 05:30:30;;;;;;;6.3;2.5;;;;;;;18.22;62.63672;1011.97;;;;
2019/05/31 05:33:11;;;;;;;4.3;2.4;;;;;;;18.32;62.33594;1012.022;;;;
2019/05/31 05:35:36;;;;;;;4.8;2.8;;;;;;;18.4;62.49902;1012.023;;;;
2019/05/31 05:38:01;;;;;;;4.4;2.9;;;;;;;18.22;63.19727;1012.072;;;;
2019/05/31 05:40:26;;;;;;;5;3;;;;;;;18.37;62.2959;1012.055;;;;
2019/05/31 05:42:51;;;;;;;5.8;2.9;;;;;;;18.38;62.58984;1012.07;;;;
2019/05/31 05:45:28;;;;;;;6;3.2;;;;;;;18.51;61.68652;1012.098;;;;
2019/05/31 05:47:56;;;;;;;5.5;2.5;;;;;;;18.56;61.11133;1012.105;;;;
2019/05/31 05:50:36;;;;;;;5.1;2.6;;;;;;;18.6;61.07129;1012.065;;;;
2019/05/31 05:53:26;;;;;;;5.3;2.6;;;;;;;18.48;61.36816;1012.058;;;;
2019/05/31 05:55:51;;;;;;;3.7;2.2;;;;;;;18.5;61.51074;1012.057;;;;
2019/05/31 05:58:26;;;;;;;5.4;3;;;;;;;18.63;60.875;1012.083;;;;
2019/05/31 06:01:01;;;;;;;4.7;2.7;;;;;;;18.58;61.26563;1012.066;;;;
2019/05/31 06:03:32;;;;;;;3.8;2.4;;;;;;;18.63;60.96973;1012.122;;;;
2019/05/31 06:05:57;;;;;;;5.7;2.5;;;;;;;18.58;61.15039;1012.118;;;;
2019/05/31 06:08:23;;;;;;;5.7;2.7;;;;;;;18.86;60.33691;1012.167;;;;
2019/05/31 06:10:48;;;;;;;5.3;2.4;;;;;;;18.85;60.12305;1012.168;;;;
2019/05/31 06:13:19;;;;;;;3.5;2.4;;;;;;;18.89;60.03711;1012.19;;;;
2019/05/31 06:15:50;;;;;;;5.6;2.3;;;;;;;18.84;60.43848;1012.191;;;;
2019/05/31 06:18:15;;;;;;;4.7;2.5;;;;;;;19.17;59.70215;1012.284;;;;
2019/05/31 06:20:41;;;;;;;4.7;2.7;;;;;;;19.15;59.11426;1012.251;;;;
2019/05/31 06:23:05;;;;;;;5.1;2.9;;;;;;;19.01;59.74902;1012.241;;;;
2019/05/31 06:25:30;;;;;;;4.8;3.1;;;;;;;19.24;59.0332;1012.226;;;;
2019/05/31 06:27:58;;;;;;;6.2;2.5;;;;;;;19.29;58.87695;1012.265;;;;
2019/05/31 06:30:23;;;;;;;4.8;2.8;;;;;;;19.47;58.5166;1012.284;;;;
2019/05/31 06:33:02;;;;;;;6.8;3;;;;;;;19.41;58.82227;1012.288;;;;
2019/05/31 06:35:29;;;;;;;3.9;2.6;;;;;;;19.52;58.29883;1012.284;;;;
2019/05/31 06:37:55;;;;;;;6.1;3.2;;;;;;;19.63;58.57129;1012.253;;;;
2019/05/31 06:40:20;;;;;;;10.7;3.5;;;;;;;19.68;58.27441;1012.277;;;;
2019/05/31 06:42:45;;;;;;;8.6;2.7;;;;;;;20.04;57.35059;1012.259;;;;
2019/05/31 06:45:10;;;;;;;4.2;2.7;;;;;;;20.03;57.59473;1012.254;;;;
2019/05/31 06:47:35;;;;;;;7.4;2.9;;;;;;;20.28;57.1123;1012.294;;;;
2019/05/31 06:50:08;;;;;;;3.6;2.4;;;;;;;20.34;56.83984;1012.256;;;;
2019/05/31 06:52:47;;;;;;;4.6;2.4;;;;;;;20.34;56.89844;1012.277;;;;
2019/05/31 06:55:22;;;;;;;4.6;2.4;;;;;;;20.55;56.50293;1012.288;;;;
2019/05/31 06:58:02;;;;;;;4.3;2.6;;;;;;;20.27;57.31055;1012.302;;;;
2019/05/31 07:00:36;;;;;;;5.2;2.9;;;;;;;20.6;56.74414;1012.315;;;;
2019/05/31 07:03:01;;;;;;;3.6;2.4;;;;;;;20.74;56.15234;1012.319;;;;
2019/05/31 07:05:26;;;;;;;6.1;2.5;;;;;;;20.72;55.99609;1012.354;;;;
2019/05/31 07:07:51;;;;;;;4.2;2.8;;;;;;;20.83;55.80078;1012.367;;;;
2019/05/31 07:10:16;;;;;;;3.8;2.5;;;;;;;21.29;54.9668;1012.373;;;;
2019/05/31 07:12:41;;;;;;;6.6;2.3;;;;;;;21.39;54.5332;1012.364;;;;
2019/05/31 07:15:06;;;;;;;4.2;2.3;;;;;;;21.7;53.66602;1012.381;;;;
2019/05/31 07:17:40;;;;;;;4.4;2.4;;;;;;;21.85;53.52051;1012.355;;;;
2019/05/31 07:20:20;;;;;;;4.3;2.4;;;;;;;22.01;52.97461;1012.377;;;;
2019/05/31 07:22:45;;;;;;;6.1;2.3;;;;;;;22.05;53.47363;1012.358;;;;
2019/05/31 07:25:10;;;;;;;3.5;2.5;;;;;;;21.92;52.91797;1012.369;;;;
2019/05/31 07:27:35;;;;;;;4.5;2.4;;;;;;;21.74;54.16504;1012.383;;;;
2019/05/31 07:30:01;;;;;;;4.6;2.4;;;;;;;23.05;50.50781;1012.374;;;;
2019/05/31 07:32:34;;;;;;;3.8;2.2;;;;;;;24.17;47.61328;1012.432;;;;
2019/05/31 07:35:02;;;;;;;4;2.3;;;;;;;23.48;49.28418;1012.402;;;;
2019/05/31 07:37:27;;;;;;;4.6;2.4;;;;;;;23.3;49.5;1012.355;;;;
2019/05/31 07:39:52;;;;;;;4.1;2.5;;;;;;;23.78;48.33887;1012.456;;;;
2019/05/31 07:42:19;;;;;;;4.5;2.2;;;;;;;24.2;47.22559;1012.462;;;;
2019/05/31 07:44:51;;;;;;;5.9;2.5;;;;;;;24.08;47.74512;1012.446;;;;
2019/05/31 07:47:16;;;;;;;3.7;2.4;;;;;;;23.9;47.58398;1012.464;;;;
2019/05/31 07:49:41;;;;;;;4.7;2.2;;;;;;;23.7;48.64746;1012.506;;;;
2019/05/31 07:52:06;;;;;;;3.6;2.4;;;;;;;23.92;47.81055;1012.551;;;;
2019/05/31 07:54:32;;;;;;;4;2.4;;;;;;;25.14;44.92285;1012.467;;;;
2019/05/31 07:56:57;;;;;;;2.5;2;;;;;;;26.02;42.37891;1012.52;;;;
2019/05/31 07:59:35;;;;;;;2.6;2;;;;;;;26.11;41.62891;1012.499;;;;
2019/05/31 08:02:00;;;;;;;2.6;2;;;;;;;25.76;42.98145;1012.459;;;;
2019/05/31 08:04:25;;;;;;;3.6;2.3;;;;;;;25.99;42.57813;1012.463;;;;
2019/05/31 08:06:58;;;;;;;4.8;2.7;;;;;;;26.26;41.72559;1012.492;;;;
2019/05/31 08:09:36;;;;;;;4.6;2.1;;;;;;;27.26;40.53516;1012.48;;;;
2019/05/31 08:12:01;;;;;;;4.4;2.1;;;;;;;28.04;37.72168;1012.52;;;;
2019/05/31 08:14:26;;;;;;;2.7;1.9;;;;;;;30.02;33.61816;1012.441;;;;
2019/05/31 08:16:52;;;;;;;3;1.7;;;;;;;28.72;36.06152;1012.47;;;;
2019/05/31 08:19:19;;;;;;;2.3;2;;;;;;;28.81;36.17676;1012.458;;;;
2019/05/31 08:21:44;;;;;;;4.4;2;;;;;;;28.85;35.09375;1012.448;;;;
2019/05/31 08:24:09;;;;;;;2.6;1.8;;;;;;;29.01;35.30859;1012.476;;;;
2019/05/31 08:26:34;;;;;;;2.2;1.5;;;;;;;30.23;33.13086;1012.437;;;;
2019/05/31 08:28:59;;;;;;;2.3;1.5;;;;;;;29.85;33.91602;1012.409;;;;
2019/05/31 08:31:24;;;;;;;2.5;1.7;;;;;;;31.31;30.88184;1012.407;;;;
2019/05/31 08:33:49;;;;;;;2.9;1.8;;;;;;;31.8;30.24316;1012.362;;;;
2019/05/31 08:36:18;;;;;;;3.4;1.8;;;;;;;32.99;28.49121;1012.4;;;;
2019/05/31 08:38:43;;;;;;;3.8;1.6;;;;;;;33.63;27.1084;1012.377;;;;
2019/05/31 08:41:08;;;;;;;3.2;1.8;;;;;;;32.02;28.71875;1012.343;;;;
2019/05/31 08:43:37;;;;;;;3.9;1.8;;;;;;;33.75;26.12695;1012.369;;;;
2019/05/31 08:46:02;;;;;;;3.7;1.7;;;;;;;33.49;26.72656;1012.299;;;;
2019/05/31 08:48:28;;;;;;;3;1.5;;;;;;;32.96;26.85156;1012.288;;;;
2019/05/31 08:51:02;;;;;;;2.9;1.7;;;;;;;31.9;28.71191;1012.265;;;;
2019/05/31 08:53:26;;;;;;;2.3;1.6;;;;;;;31.16;29.93652;1012.179;;;;
2019/05/31 08:55:52;;;;;;;4.1;1.8;;;;;;;33.16;27.4541;1012.239;;;;
2019/05/31 08:58:17;;;;;;;3;1.7;;;;;;;32.96;27.12891;1012.239;;;;
2019/05/31 09:00:47;;;;;;;3.7;1.8;;;;;;;34.12;25.29102;1012.215;;;;
2019/05/31 09:03:15;;;;;;;4.1;1.7;;;;;;;34.96;24.55176;1012.234;;;;
2019/05/31 09:05:46;;;;;;;2.9;1.6;;;;;;;33.51;25.94434;1012.19;;;;
2019/05/31 09:08:17;;;;;;;2.9;1.4;;;;;;;33.48;25.80957;1012.181;;;;
2019/05/31 09:10:42;;;;;;;2.9;1.6;;;;;;;33.46;26.1709;1012.184;;;;
2019/05/31 09:13:07;;;;;;;3.7;1.6;;;;;;;32.74;27.83789;1012.177;;;;
2019/05/31 09:15:32;;;;;;;2.6;1.7;;;;;;;35.17;24.34473;1012.12;;;;
2019/05/31 09:17:57;;;;;;;3.1;1.5;;;;;;;33.61;26.43262;1012.117;;;;
2019/05/31 09:20:22;;;;;;;2.2;1.4;;;;;;;33.31;25.87305;1012.105;;;;
2019/05/31 09:22:47;;;;;;;2.6;1.4;;;;;;;32.91;26.52441;1012.129;;;;
2019/05/31 09:25:12;;;;;;;2.7;1.5;;;;;;;32.79;26.75781;1012.084;;;;
2019/05/31 09:27:38;;;;;;;2.8;1.5;;;;;;;33.46;26.36328;1012.003;;;;
2019/05/31 09:30:03;;;;;;;2.4;1.4;;;;;;;33.98;25.80176;1012.002;;;;
2019/05/31 09:32:28;;;;;;;3.1;1.3;;;;;;;32.4;27.86523;1012.048;;;;
2019/05/31 09:34:54;;;;;;;2.1;1.3;;;;;;;33.62;25.76953;1012.04;;;;
2019/05/31 09:37:19;;;;;;;2.1;1.3;;;;;;;33.42;25.87891;1012.001;;;;
2019/05/31 09:39:44;;;;;;;2.8;1.3;;;;;;;33.06;26.60547;1011.992;;;;
2019/05/31 09:42:09;;;;;;;2;1.4;;;;;;;33.94;25.63086;1011.983;;;;
2019/05/31 09:44:34;;;;;;;3;1.5;;;;;;;34.46;24.71777;1012.002;;;;
2019/05/31 09:46:59;;;;;;;2.9;1.3;;;;;;;33.08;26.59473;1011.95;;;;
2019/05/31 09:49:25;;;;;;;2.2;1.4;;;;;;;32.9;26.45117;1011.957;;;;
2019/05/31 09:51:51;;;;;;;2.7;1.5;;;;;;;33.36;25.64648;1011.974;;;;
2019/05/31 09:54:20;;;;;;;3.9;1.6;;;;;;;33.03;26.33887;1011.904;;;;
2019/05/31 09:56:45;;;;;;;2.6;1.4;;;;;;;32.92;25.93457;1011.877;;;;
2019/05/31 09:59:11;;;;;;;2.4;1.6;;;;;;;33.2;25.99902;1011.861;;;;
2019/05/31 10:01:40;;;;;;;2;1.7;;;;;;;32.33;26.69434;1011.869;;;;
2019/05/31 10:04:16;;;;;;;2.4;1.4;;;;;;;32.07;27.68848;1011.842;;;;
2019/05/31 10:06:41;;;;;;;2;1.2;;;;;;;33.01;27.74609;1011.849;;;;
2019/05/31 10:09:17;;;;;;;1.7;1.4;;;;;;;32.09;28.62695;1011.882;;;;
2019/05/31 10:11:58;;;;;;;2.3;1.3;;;;;;;31.96;28.45117;1011.847;;;;
2019/05/31 10:14:25;;;;;;;3.9;1.4;;;;;;;31.21;29.41211;1011.822;;;;
2019/05/31 10:16:56;;;;;;;4.1;1.4;;;;;;;32.51;28.44922;1011.82;;;;
2019/05/31 10:19:29;;;;;;;2.2;1.5;;;;;;;32.33;27.52344;1011.774;;;;
2019/05/31 10:21:54;;;;;;;2.7;1.5;;;;;;;31.85;28.73242;1011.679;;;;
2019/05/31 10:24:20;;;;;;;2.8;1.5;;;;;;;31.8;27.44434;1011.592;;;;
2019/05/31 10:26:45;;;;;;;1.6;1.3;;;;;;;31.27;27.83203;1011.587;;;;
2019/05/31 10:29:19;;;;;;;2.1;1.2;;;;;;;31.83;27.97461;1011.616;;;;
2019/05/31 10:31:47;;;;;;;2.4;1.4;;;;;;;31.16;29.95996;1011.561;;;;
2019/05/31 10:34:33;;;;;;;2.6;1.4;;;;;;;29.63;32.94336;1011.555;;;;
2019/05/31 10:36:58;;;;;;;2.7;1.6;;;;;;;28.96;33.26465;1011.483;;;;
2019/05/31 10:39:23;;;;;;;3.5;1.4;;;;;;;28.3;34.84863;1011.525;;;;
2019/05/31 10:41:49;;;;;;;2.3;1.4;;;;;;;29.04;33.66406;1011.419;;;;
2019/05/31 10:44:13;;;;;;;2.9;1.4;;;;;;;29.17;33.42285;1011.372;;;;
2019/05/31 10:46:47;;;;;;;1.7;1.3;;;;;;;28.06;35.19922;1011.399;;;;
2019/05/31 10:49:16;;;;;;;3.9;1.5;;;;;;;28.29;34.42969;1011.341;;;;
2019/05/31 10:51:41;;;;;;;3.2;1.4;;;;;;;28.04;35.42285;1011.33;;;;
2019/05/31 10:54:06;;;;;;;2.1;1.5;;;;;;;27.15;35.95996;1011.291;;;;
2019/05/31 10:56:32;;;;;;;3.6;1.5;;;;;;;27.32;36.88965;1011.264;;;;
2019/05/31 10:58:57;;;;;;;2.9;1.5;;;;;;;27.55;37.38379;1011.245;;;;
2019/05/31 11:01:45;;;;;;;1.7;1.5;;;;;;;27.42;35.56543;1011.241;;;;
2019/05/31 11:04:16;;;;;;;1.8;1.2;;;;;;;27.15;35.61523;1011.234;;;;
2019/05/31 11:06:49;;;;;;;1.9;1.5;;;;;;;26.85;36.49414;1011.214;;;;
2019/05/31 11:09:14;;;;;;;2.4;1.4;;;;;;;26.76;36.49902;1011.223;;;;
2019/05/31 11:11:48;;;;;;;3.5;1.5;;;;;;;26.9;36.32031;1011.207;;;;
2019/05/31 11:14:14;;;;;;;2.2;1.4;;;;;;;27.38;35.87109;1011.258;;;;
2019/05/31 11:16:39;;;;;;;2.3;1.4;;;;;;;27.56;34.98145;1011.264;;;;
2019/05/31 11:19:11;;;;;;;1.9;1.3;;;;;;;27.28;35.22168;1011.212;;;;
2019/05/31 11:21:50;;;;;;;2.8;1.3;;;;;;;27.41;34.82617;1011.128;;;;
2019/05/31 11:24:23;;;;;;;2.4;1.2;;;;;;;28.09;33.9502;1011.152;;;;
2019/05/31 11:26:49;;;;;;;3.1;1.4;;;;;;;28.2;34.3877;1011.15;;;;
2019/05/31 11:29:14;;;;;;;4.2;1.3;;;;;;;28.52;33.18457;1011.104;;;;
2019/05/31 11:31:39;;;;;;;2.3;1.4;;;;;;;27.74;34.70996;1011.032;;;;
2019/05/31 11:34:20;;;;;;;2.8;1.3;;;;;;;28.3;33.89551;1011.084;;;;
2019/05/31 11:36:45;;;;;;;1.9;1.2;;;;;;;28.59;32.54492;1011.02;;;;
2019/05/31 11:39:23;;;;;;;2.8;1.4;;;;;;;27.69;33.4082;1011.068;;;;
2019/05/31 11:41:57;;;;;;;1.6;1.1;;;;;;;28.52;32.30176;1010.956;;;;
2019/05/31 11:44:23;;;;;;;2.4;1;;;;;;;27.83;33.26367;1010.94;;;;
2019/05/31 11:46:47;;;;;;;1.5;1;;;;;;;27.67;34.57324;1010.968;;;;
2019/05/31 11:49:16;;;;;;;2.1;1.2;;;;;;;27.95;33.41602;1010.933;;;;
2019/05/31 11:51:41;;;;;;;2.4;1.3;;;;;;;28.41;32.3418;1010.858;;;;
2019/05/31 11:54:07;;;;;;;1.6;1.2;;;;;;;28.44;32.22461;1010.869;;;;
2019/05/31 11:56:32;;;;;;;2;1.2;;;;;;;28.8;32.70313;1010.847;;;;
2019/05/31 11:58:57;;;;;;;3.1;1.3;;;;;;;28.37;33.58887;1010.797;;;;
2019/05/31 12:01:23;;;;;;;2.6;1.2;;;;;;;28.32;33.09766;1010.809;;;;
2019/05/31 12:03:48;;;;;;;2.1;1.3;;;;;;;28.47;33.09668;1010.703;;;;
2019/05/31 12:06:16;;;;;;;10.5;2.9;;;;;;;29.01;31.87109;1010.733;;;;
2019/05/31 12:08:41;;;;;;;1.8;1.1;;;;;;;28.64;33.14453;1010.783;;;;
2019/05/31 12:11:19;;;;;;;1.5;1.2;;;;;;;29.05;34.32129;1010.727;;;;
2019/05/31 12:13:44;;;;;;;1.8;1.2;;;;;;;29.41;32.34082;1010.725;;;;
2019/05/31 12:16:09;;;;;;;1.5;1.2;;;;;;;29.02;32.64746;1010.674;;;;
2019/05/31 12:18:34;;;;;;;6.2;1.4;;;;;;;28.73;32.11328;1010.709;;;;
2019/05/31 12:20:59;;;;;;;1.5;1.2;;;;;;;28.43;33.2373;1010.63;;;;
2019/05/31 12:23:24;;;;;;;1.8;1;;;;;;;28.29;31.46289;1010.662;;;;
2019/05/31 12:25:49;;;;;;;5.6;1.4;;;;;;;27.94;32.03418;1010.677;;;;
2019/05/31 12:28:14;;;;;;;30;13.3;;;;;;;28.45;30.91309;1010.692;;;;
2019/05/31 12:30:39;;;;;;;22.1;9.7;;;;;;;28.23;31.68555;1010.708;;;;
2019/05/31 12:33:05;;;;;;;3;1.1;;;;;;;28.5;30.85742;1010.656;;;;
2019/05/31 12:35:30;;;;;;;1.3;0.9;;;;;;;28.54;30.08496;1010.613;;;;
2019/05/31 12:37:55;;;;;;;20.1;8.5;;;;;;;28.52;29.34473;1010.644;;;;
2019/05/31 12:40:20;;;;;;;14.8;1.4;;;;;;;28.54;29.10742;1010.599;;;;
2019/05/31 12:43:06;;;;;;;36.1;3;;;;;;;28.15;30.82129;1010.585;;;;
2019/05/31 12:45:33;;;;;;;1.1;0.9;;;;;;;28.96;31.12793;1010.575;;;;
2019/05/31 12:47:58;;;;;;;2.1;1.2;;;;;;;29.12;31.37793;1010.532;;;;
2019/05/31 12:50:23;;;;;;;1.8;1.1;;;;;;;29.12;31.74707;1010.524;;;;
2019/05/31 12:52:48;;;;;;;9.6;1.7;;;;;;;29.08;31.57813;1010.552;;;;
2019/05/31 12:55:13;;;;;;;5.7;1.3;;;;;;;29.33;32.32422;1010.578;;;;
2019/05/31 12:57:39;;;;;;;2.5;1.2;;;;;;;29.32;32.46582;1010.529;;;;
2019/05/31 13:00:21;;;;;;;1.8;1.2;;;;;;;29.35;31.65625;1010.532;;;;
2019/05/31 13:02:53;;;;;;;1.7;1.3;;;;;;;29.74;31.95801;1010.536;;;;
2019/05/31 13:05:18;;;;;;;3.1;1.3;;;;;;;29.85;31.5957;1010.572;;;;
2019/05/31 13:07:49;;;;;;;2.6;1.1;;;;;;;29.86;30.97461;1010.51;;;;
2019/05/31 13:10:24;;;;;;;1.6;1;;;;;;;29.29;30.92383;1010.559;;;;
2019/05/31 13:12:49;;;;;;;3.1;1.2;;;;;;;28.89;31.62305;1010.515;;;;
2019/05/31 13:15:19;;;;;;;2.2;1.2;;;;;;;28.77;31.38867;1010.488;;;;
2019/05/31 13:17:44;;;;;;;1.4;1.1;;;;;;;28.04;30.84961;1010.517;;;;
2019/05/31 13:20:09;;;;;;;1.3;1;;;;;;;27.66;33.33496;1010.491;;;;
2019/05/31 13:22:41;;;;;;;1.9;1.1;;;;;;;28.01;32.52637;1010.465;;;;
2019/05/31 13:25:06;;;;;;;2.3;1.1;;;;;;;28.13;32.11914;1010.454;;;;
2019/05/31 13:27:42;;;;;;;2.4;1.1;;;;;;;28.24;32.72266;1010.448;;;;
2019/05/31 13:30:07;;;;;;;1.7;1.1;;;;;;;27.84;31.00293;1010.449;;;;
2019/05/31 13:32:51;;;;;;;1.4;0.9;;;;;;;27.91;31.62695;1010.45;;;;
2019/05/31 13:35:16;;;;;;;2.8;1.2;;;;;;;28;31.2041;1010.449;;;;
2019/05/31 13:37:46;;;;;;;2.6;1.1;;;;;;;27.99;31.06055;1010.399;;;;
2019/05/31 13:40:26;;;;;;;2.3;0.9;;;;;;;27.83;31.74023;1010.465;;;;
2019/05/31 13:42:52;;;;;;;1.8;1.1;;;;;;;27.91;31.91309;1010.428;;;;
2019/05/31 13:45:17;;;;;;;1.2;1;;;;;;;27.5;31.82324;1010.382;;;;
2019/05/31 13:47:49;;;;;;;1.9;1;;;;;;;27.6;31.66504;1010.389;;;;
2019/05/31 13:50:23;;;;;;;1.3;0.9;;;;;;;27.04;30.79297;1010.374;;;;
2019/05/31 13:52:48;;;;;;;1.6;0.9;;;;;;;26.8;33.0459;1010.378;;;;
2019/05/31 13:55:23;;;;;;;2;1.2;;;;;;;26.85;32.24121;1010.332;;;;
2019/05/31 13:57:48;;;;;;;2.5;1;;;;;;;26.75;33.00684;1010.291;;;;
2019/05/31 14:00:13;;;;;;;1.6;1;;;;;;;26.7;34.01172;1010.295;;;;
2019/05/31 14:02:38;;;;;;;2.1;1.1;;;;;;;26.99;33.34473;1010.302;;;;
2019/05/31 14:05:03;;;;;;;1.8;1;;;;;;;26.99;32.80957;1010.308;;;;
2019/05/31 14:07:36;;;;;;;2;1;;;;;;;26.98;33.49805;1010.249;;;;
2019/05/31 14:10:10;;;;;;;2.2;0.9;;;;;;;27.13;32.52246;1010.28;;;;
2019/05/31 14:12:36;;;;;;;1.5;1;;;;;;;27.37;34.27637;1010.269;;;;
2019/05/31 14:15:08;;;;;;;1.9;0.9;;;;;;;27.35;31.18262;1010.268;;;;
2019/05/31 14:17:52;;;;;;;1.8;1.1;;;;;;;27.11;31.98633;1010.276;;;;
2019/05/31 14:20:17;;;;;;;1.6;1.1;;;;;;;27.17;31.84863;1010.245;;;;
2019/05/31 14:22:42;;;;;;;1.2;0.9;;;;;;;27.05;31.37598;1010.2;;;;
2019/05/31 14:25:20;;;;;;;1.4;0.9;;;;;;;26.82;31.44336;1010.201;;;;
2019/05/31 14:27:54;;;;;;;1.8;1.1;;;;;;;26.46;33.22168;1010.122;;;;
2019/05/31 14:30:30;;;;;;;1.8;1;;;;;;;26.71;33.6084;1010.129;;;;
2019/05/31 14:32:56;;;;;;;2.7;1;;;;;;;27.04;33.63281;1010.163;;;;